sensor_id;sensor_type;location;lat;lon;timestamp;temperature;humidity
21592;DHT22;10958;50.892;3.992;2022-08-14T00:00:54;24.60;99.90
21592;DHT22;10958;50.892;3.992;2022-08-14T00:03:22;24.80;99.90
21592;DHT22;10958;50.892;3.992;2022-08-14T00:05:48;24.90;99.90
21592;DHT22;10958;50.892;3.992;2022-08-14T00:08:14;24.70;99.90
21592;DHT22;10958;50.892;3.992;2022-08-14T00:10:40;24.70;99.90
21592;DHT22;10958;50.892;3.992;2022-08-14T00:13:06;24.80;99.90
21592;DHT22;10958;50.892;3.992;2022-08-14T00:15:36;24.60;99.90
21592;DHT22;10958;50.892;3.992;2022-08-14T00:18:04;24.20;99.90
21592;DHT22;10958;50.892;3.992;2022-08-14T00:20:33;24.00;99.90
21592;DHT22;10958;50.892;3.992;2022-08-14T00:22:59;24.10;99.90
21592;DHT22;10958;50.892;3.992;2022-08-14T00:25:25;24.10;99.90
21592;DHT22;10958;50.892;3.992;2022-08-14T00:27:52;24.10;99.90
21592;DHT22;10958;50.892;3.992;2022-08-14T00:30:17;24.10;99.90
21592;DHT22;10958;50.892;3.992;2022-08-14T00:32:44;24.00;99.90
21592;DHT22;10958;50.892;3.992;2022-08-14T00:35:10;24.10;99.90
21592;DHT22;10958;50.892;3.992;2022-08-14T00:37:41;23.90;99.90
21592;DHT22;10958;50.892;3.992;2022-08-14T00:40:09;23.90;99.90
21592;DHT22;10958;50.892;3.992;2022-08-14T00:42:35;23.90;99.90
21592;DHT22;10958;50.892;3.992;2022-08-14T00:45:02;23.80;99.90
21592;DHT22;10958;50.892;3.992;2022-08-14T00:47:27;23.70;99.90
21592;DHT22;10958;50.892;3.992;2022-08-14T00:49:54;23.70;99.90
21592;DHT22;10958;50.892;3.992;2022-08-14T00:52:24;23.60;99.90
21592;DHT22;10958;50.892;3.992;2022-08-14T00:57:39;23.50;99.90
21592;DHT22;10958;50.892;3.992;2022-08-14T01:00:10;23.40;99.90
21592;DHT22;10958;50.892;3.992;2022-08-14T01:02:38;23.30;99.90
21592;DHT22;10958;50.892;3.992;2022-08-14T01:05:05;23.20;99.90
21592;DHT22;10958;50.892;3.992;2022-08-14T01:07:32;23.20;99.90
21592;DHT22;10958;50.892;3.992;2022-08-14T01:10:00;23.20;99.90
21592;DHT22;10958;50.892;3.992;2022-08-14T01:12:27;23.10;99.90
21592;DHT22;10958;50.892;3.992;2022-08-14T01:14:54;23.10;99.90
21592;DHT22;10958;50.892;3.992;2022-08-14T01:17:21;23.00;99.90
21592;DHT22;10958;50.892;3.992;2022-08-14T01:19:48;23.00;99.90
21592;DHT22;10958;50.892;3.992;2022-08-14T01:22:33;22.90;99.90
21592;DHT22;10958;50.892;3.992;2022-08-14T01:25:00;22.90;99.90
21592;DHT22;10958;50.892;3.992;2022-08-14T01:27:26;22.90;99.90
21592;DHT22;10958;50.892;3.992;2022-08-14T01:29:55;22.80;99.90
21592;DHT22;10958;50.892;3.992;2022-08-14T01:32:21;22.80;99.90
21592;DHT22;10958;50.892;3.992;2022-08-14T01:34:51;22.70;99.90
21592;DHT22;10958;50.892;3.992;2022-08-14T01:37:20;22.70;99.90
21592;DHT22;10958;50.892;3.992;2022-08-14T01:39:52;22.70;99.90
21592;DHT22;10958;50.892;3.992;2022-08-14T01:42:19;22.70;99.90
21592;DHT22;10958;50.892;3.992;2022-08-14T01:44:46;22.60;99.90
21592;DHT22;10958;50.892;3.992;2022-08-14T01:47:16;22.60;99.90
21592;DHT22;10958;50.892;3.992;2022-08-14T01:49:43;22.50;99.90
21592;DHT22;10958;50.892;3.992;2022-08-14T01:52:09;22.50;99.90
21592;DHT22;10958;50.892;3.992;2022-08-14T01:54:35;22.50;99.90
21592;DHT22;10958;50.892;3.992;2022-08-14T01:57:01;22.40;99.90
21592;DHT22;10958;50.892;3.992;2022-08-14T01:59:31;22.30;99.90
21592;DHT22;10958;50.892;3.992;2022-08-14T02:01:59;22.30;99.90
21592;DHT22;10958;50.892;3.992;2022-08-14T02:04:31;22.20;99.90
21592;DHT22;10958;50.892;3.992;2022-08-14T02:06:58;22.10;99.90
21592;DHT22;10958;50.892;3.992;2022-08-14T02:09:24;22.10;99.90
21592;DHT22;10958;50.892;3.992;2022-08-14T02:11:51;22.10;99.90
21592;DHT22;10958;50.892;3.992;2022-08-14T02:14:17;22.00;99.90
21592;DHT22;10958;50.892;3.992;2022-08-14T02:16:48;22.00;99.90
21592;DHT22;10958;50.892;3.992;2022-08-14T02:19:23;22.00;99.90
21592;DHT22;10958;50.892;3.992;2022-08-14T02:21:52;21.90;99.90
21592;DHT22;10958;50.892;3.992;2022-08-14T02:24:41;21.90;99.90
21592;DHT22;10958;50.892;3.992;2022-08-14T02:27:07;21.90;99.90
21592;DHT22;10958;50.892;3.992;2022-08-14T02:29:35;21.80;99.90
21592;DHT22;10958;50.892;3.992;2022-08-14T02:32:01;21.80;99.90
21592;DHT22;10958;50.892;3.992;2022-08-14T02:34:32;21.80;99.90
21592;DHT22;10958;50.892;3.992;2022-08-14T02:37:02;21.70;99.90
21592;DHT22;10958;50.892;3.992;2022-08-14T02:39:30;21.70;99.90
21592;DHT22;10958;50.892;3.992;2022-08-14T02:41:57;21.60;99.90
21592;DHT22;10958;50.892;3.992;2022-08-14T02:44:24;21.60;99.90
21592;DHT22;10958;50.892;3.992;2022-08-14T02:46:52;21.60;99.90
21592;DHT22;10958;50.892;3.992;2022-08-14T02:49:20;21.60;99.90
21592;DHT22;10958;50.892;3.992;2022-08-14T02:51:52;21.50;99.90
21592;DHT22;10958;50.892;3.992;2022-08-14T02:54:19;21.50;99.90
21592;DHT22;10958;50.892;3.992;2022-08-14T02:56:47;21.50;99.90
21592;DHT22;10958;50.892;3.992;2022-08-14T02:59:14;21.50;99.90
21592;DHT22;10958;50.892;3.992;2022-08-14T03:01:41;21.50;99.90
21592;DHT22;10958;50.892;3.992;2022-08-14T03:04:07;21.50;99.90
21592;DHT22;10958;50.892;3.992;2022-08-14T03:06:35;21.40;99.90
21592;DHT22;10958;50.892;3.992;2022-08-14T03:09:03;21.40;99.90
21592;DHT22;10958;50.892;3.992;2022-08-14T03:11:29;21.40;99.90
21592;DHT22;10958;50.892;3.992;2022-08-14T03:13:56;21.40;99.90
21592;DHT22;10958;50.892;3.992;2022-08-14T03:16:24;21.40;99.90
21592;DHT22;10958;50.892;3.992;2022-08-14T03:18:53;21.40;99.90
21592;DHT22;10958;50.892;3.992;2022-08-14T03:21:21;21.50;99.90
21592;DHT22;10958;50.892;3.992;2022-08-14T03:23:49;21.40;99.90
21592;DHT22;10958;50.892;3.992;2022-08-14T03:26:18;21.50;99.90
21592;DHT22;10958;50.892;3.992;2022-08-14T03:28:49;21.40;99.90
21592;DHT22;10958;50.892;3.992;2022-08-14T03:31:15;21.40;99.90
21592;DHT22;10958;50.892;3.992;2022-08-14T03:33:49;21.50;99.90
21592;DHT22;10958;50.892;3.992;2022-08-14T03:36:17;21.40;99.90
21592;DHT22;10958;50.892;3.992;2022-08-14T03:38:46;21.40;99.90
21592;DHT22;10958;50.892;3.992;2022-08-14T03:41:22;21.40;99.90
21592;DHT22;10958;50.892;3.992;2022-08-14T03:43:51;21.40;99.90
21592;DHT22;10958;50.892;3.992;2022-08-14T03:46:18;21.40;99.90
21592;DHT22;10958;50.892;3.992;2022-08-14T03:48:44;21.40;99.90
21592;DHT22;10958;50.892;3.992;2022-08-14T03:51:12;21.40;99.90
21592;DHT22;10958;50.892;3.992;2022-08-14T03:53:40;21.30;99.90
21592;DHT22;10958;50.892;3.992;2022-08-14T03:56:08;21.30;99.90
21592;DHT22;10958;50.892;3.992;2022-08-14T03:58:46;21.40;99.90
21592;DHT22;10958;50.892;3.992;2022-08-14T04:01:16;21.40;99.90
21592;DHT22;10958;50.892;3.992;2022-08-14T04:03:44;21.30;99.90
21592;DHT22;10958;50.892;3.992;2022-08-14T04:06:10;21.30;99.90
21592;DHT22;10958;50.892;3.992;2022-08-14T04:08:37;21.30;99.90
21592;DHT22;10958;50.892;3.992;2022-08-14T04:11:04;21.20;99.90
21592;DHT22;10958;50.892;3.992;2022-08-14T04:13:32;21.20;99.90
21592;DHT22;10958;50.892;3.992;2022-08-14T04:15:58;21.20;99.90
21592;DHT22;10958;50.892;3.992;2022-08-14T04:18:24;21.10;99.90
21592;DHT22;10958;50.892;3.992;2022-08-14T04:20:50;21.10;99.90
21592;DHT22;10958;50.892;3.992;2022-08-14T04:23:16;21.00;99.90
21592;DHT22;10958;50.892;3.992;2022-08-14T04:25:42;21.00;99.90
21592;DHT22;10958;50.892;3.992;2022-08-14T04:28:09;20.90;99.90
21592;DHT22;10958;50.892;3.992;2022-08-14T04:30:36;21.00;99.90
21592;DHT22;10958;50.892;3.992;2022-08-14T04:33:06;20.90;99.90
21592;DHT22;10958;50.892;3.992;2022-08-14T04:35:33;20.90;99.90
21592;DHT22;10958;50.892;3.992;2022-08-14T04:37:59;20.90;99.90
21592;DHT22;10958;50.892;3.992;2022-08-14T04:40:44;20.90;99.90
21592;DHT22;10958;50.892;3.992;2022-08-14T04:43:28;20.90;99.90
21592;DHT22;10958;50.892;3.992;2022-08-14T04:46:16;20.90;99.90
21592;DHT22;10958;50.892;3.992;2022-08-14T04:48:42;20.80;99.90
21592;DHT22;10958;50.892;3.992;2022-08-14T04:51:10;20.80;99.90
21592;DHT22;10958;50.892;3.992;2022-08-14T04:53:42;20.80;99.90
21592;DHT22;10958;50.892;3.992;2022-08-14T04:56:09;20.80;99.90
21592;DHT22;10958;50.892;3.992;2022-08-14T04:58:36;20.80;99.90
21592;DHT22;10958;50.892;3.992;2022-08-14T05:01:04;20.80;99.90
21592;DHT22;10958;50.892;3.992;2022-08-14T05:03:32;20.80;99.90
21592;DHT22;10958;50.892;3.992;2022-08-14T05:06:01;20.90;99.90
21592;DHT22;10958;50.892;3.992;2022-08-14T05:08:28;20.90;99.90
21592;DHT22;10958;50.892;3.992;2022-08-14T05:10:55;20.80;99.90
21592;DHT22;10958;50.892;3.992;2022-08-14T05:13:23;20.80;99.90
21592;DHT22;10958;50.892;3.992;2022-08-14T05:15:51;20.80;99.90
21592;DHT22;10958;50.892;3.992;2022-08-14T05:18:22;20.90;99.90
21592;DHT22;10958;50.892;3.992;2022-08-14T05:20:50;20.90;99.90
21592;DHT22;10958;50.892;3.992;2022-08-14T05:23:19;20.90;99.90
21592;DHT22;10958;50.892;3.992;2022-08-14T05:25:47;20.90;99.90
21592;DHT22;10958;50.892;3.992;2022-08-14T05:30:45;20.90;99.90
21592;DHT22;10958;50.892;3.992;2022-08-14T05:33:15;20.90;99.90
21592;DHT22;10958;50.892;3.992;2022-08-14T05:35:43;20.90;99.90
21592;DHT22;10958;50.892;3.992;2022-08-14T05:38:16;20.90;99.90
21592;DHT22;10958;50.892;3.992;2022-08-14T05:40:43;20.90;99.90
21592;DHT22;10958;50.892;3.992;2022-08-14T05:43:09;21.00;99.90
21592;DHT22;10958;50.892;3.992;2022-08-14T05:45:35;21.20;99.90
21592;DHT22;10958;50.892;3.992;2022-08-14T05:48:03;21.40;99.90
21592;DHT22;10958;50.892;3.992;2022-08-14T05:50:29;21.40;99.90
21592;DHT22;10958;50.892;3.992;2022-08-14T05:55:31;21.80;99.90
21592;DHT22;10958;50.892;3.992;2022-08-14T05:57:57;22.10;99.90
21592;DHT22;10958;50.892;3.992;2022-08-14T06:00:27;22.20;99.90
21592;DHT22;10958;50.892;3.992;2022-08-14T06:02:53;22.40;99.90
21592;DHT22;10958;50.892;3.992;2022-08-14T06:05:21;22.60;99.90
21592;DHT22;10958;50.892;3.992;2022-08-14T06:07:47;22.80;99.90
21592;DHT22;10958;50.892;3.992;2022-08-14T06:10:13;22.90;99.90
21592;DHT22;10958;50.892;3.992;2022-08-14T06:12:38;23.10;99.90
21592;DHT22;10958;50.892;3.992;2022-08-14T06:15:06;23.20;99.90
21592;DHT22;10958;50.892;3.992;2022-08-14T06:17:42;23.30;99.90
21592;DHT22;10958;50.892;3.992;2022-08-14T06:20:08;23.80;99.90
21592;DHT22;10958;50.892;3.992;2022-08-14T06:22:34;24.80;99.90
21592;DHT22;10958;50.892;3.992;2022-08-14T06:24:59;26.30;99.90
21592;DHT22;10958;50.892;3.992;2022-08-14T06:27:25;26.90;99.90
21592;DHT22;10958;50.892;3.992;2022-08-14T06:29:50;27.80;99.90
21592;DHT22;10958;50.892;3.992;2022-08-14T06:32:16;28.80;99.90
21592;DHT22;10958;50.892;3.992;2022-08-14T06:34:42;29.40;99.90
21592;DHT22;10958;50.892;3.992;2022-08-14T06:37:07;29.70;99.90
21592;DHT22;10958;50.892;3.992;2022-08-14T06:39:33;29.70;99.90
21592;DHT22;10958;50.892;3.992;2022-08-14T06:41:59;30.20;99.90
21592;DHT22;10958;50.892;3.992;2022-08-14T06:44:26;31.10;99.90
21592;DHT22;10958;50.892;3.992;2022-08-14T06:46:52;31.70;99.90
21592;DHT22;10958;50.892;3.992;2022-08-14T06:49:17;31.60;99.90
21592;DHT22;10958;50.892;3.992;2022-08-14T06:51:43;32.00;99.90
21592;DHT22;10958;50.892;3.992;2022-08-14T06:54:11;32.30;99.90
21592;DHT22;10958;50.892;3.992;2022-08-14T06:56:38;31.80;99.90
21592;DHT22;10958;50.892;3.992;2022-08-14T06:59:04;32.50;99.90
21592;DHT22;10958;50.892;3.992;2022-08-14T07:01:29;32.70;99.90
21592;DHT22;10958;50.892;3.992;2022-08-14T07:04:13;33.40;99.90
21592;DHT22;10958;50.892;3.992;2022-08-14T07:06:57;33.60;99.90
21592;DHT22;10958;50.892;3.992;2022-08-14T07:09:23;33.90;99.90
21592;DHT22;10958;50.892;3.992;2022-08-14T07:11:50;33.80;99.50
21592;DHT22;10958;50.892;3.992;2022-08-14T07:14:16;34.40;99.30
21592;DHT22;10958;50.892;3.992;2022-08-14T07:16:41;34.30;99.30
21592;DHT22;10958;50.892;3.992;2022-08-14T07:19:07;33.80;99.60
21592;DHT22;10958;50.892;3.992;2022-08-14T07:21:34;33.60;99.70
21592;DHT22;10958;50.892;3.992;2022-08-14T07:24:02;34.20;99.00
21592;DHT22;10958;50.892;3.992;2022-08-14T07:26:28;35.10;98.20
21592;DHT22;10958;50.892;3.992;2022-08-14T07:28:54;35.50;97.30
21592;DHT22;10958;50.892;3.992;2022-08-14T07:31:19;35.90;96.80
21592;DHT22;10958;50.892;3.992;2022-08-14T07:33:47;36.10;96.50
21592;DHT22;10958;50.892;3.992;2022-08-14T07:36:16;36.40;96.10
21592;DHT22;10958;50.892;3.992;2022-08-14T07:38:42;35.70;96.00
21592;DHT22;10958;50.892;3.992;2022-08-14T07:41:09;35.40;96.30
21592;DHT22;10958;50.892;3.992;2022-08-14T07:43:36;34.20;96.40
21592;DHT22;10958;50.892;3.992;2022-08-14T07:46:03;34.30;96.40
21592;DHT22;10958;50.892;3.992;2022-08-14T07:48:28;34.00;97.10
21592;DHT22;10958;50.892;3.992;2022-08-14T07:50:55;33.60;97.60
21592;DHT22;10958;50.892;3.992;2022-08-14T07:53:21;34.00;97.40
21592;DHT22;10958;50.892;3.992;2022-08-14T07:55:48;34.30;97.20
21592;DHT22;10958;50.892;3.992;2022-08-14T07:58:14;35.00;96.80
21592;DHT22;10958;50.892;3.992;2022-08-14T08:00:41;35.80;95.90
21592;DHT22;10958;50.892;3.992;2022-08-14T08:03:08;35.80;95.60
21592;DHT22;10958;50.892;3.992;2022-08-14T08:05:38;36.30;95.00
21592;DHT22;10958;50.892;3.992;2022-08-14T08:08:05;36.20;94.90
21592;DHT22;10958;50.892;3.992;2022-08-14T08:10:31;36.00;94.50
21592;DHT22;10958;50.892;3.992;2022-08-14T08:13:06;36.40;94.20
21592;DHT22;10958;50.892;3.992;2022-08-14T08:15:36;36.60;94.70
21592;DHT22;10958;50.892;3.992;2022-08-14T08:18:04;35.90;95.10
21592;DHT22;10958;50.892;3.992;2022-08-14T08:20:34;34.60;96.10
21592;DHT22;10958;50.892;3.992;2022-08-14T08:23:01;34.20;96.10
21592;DHT22;10958;50.892;3.992;2022-08-14T08:25:32;34.60;95.90
21592;DHT22;10958;50.892;3.992;2022-08-14T08:28:01;35.20;95.20
21592;DHT22;10958;50.892;3.992;2022-08-14T08:30:29;35.40;94.90
21592;DHT22;10958;50.892;3.992;2022-08-14T08:32:57;35.60;94.60
21592;DHT22;10958;50.892;3.992;2022-08-14T08:35:28;35.00;94.90
21592;DHT22;10958;50.892;3.992;2022-08-14T08:38:03;34.30;95.60
21592;DHT22;10958;50.892;3.992;2022-08-14T08:40:35;34.30;95.70
21592;DHT22;10958;50.892;3.992;2022-08-14T08:43:22;34.20;94.80
21592;DHT22;10958;50.892;3.992;2022-08-14T08:48:27;33.90;95.20
21592;DHT22;10958;50.892;3.992;2022-08-14T08:51:00;33.70;95.50
21592;DHT22;10958;50.892;3.992;2022-08-14T08:53:35;34.20;95.30
21592;DHT22;10958;50.892;3.992;2022-08-14T08:56:01;35.20;94.70
21592;DHT22;10958;50.892;3.992;2022-08-14T08:58:27;36.00;94.30
21592;DHT22;10958;50.892;3.992;2022-08-14T09:00:55;36.00;93.60
21592;DHT22;10958;50.892;3.992;2022-08-14T09:03:26;35.70;94.20
21592;DHT22;10958;50.892;3.992;2022-08-14T09:08:26;35.80;93.10
21592;DHT22;10958;50.892;3.992;2022-08-14T09:10:54;35.70;93.90
21592;DHT22;10958;50.892;3.992;2022-08-14T09:13:20;36.20;93.00
21592;DHT22;10958;50.892;3.992;2022-08-14T09:15:48;36.00;93.40
21592;DHT22;10958;50.892;3.992;2022-08-14T09:18:16;36.40;93.40
21592;DHT22;10958;50.892;3.992;2022-08-14T09:20:45;36.70;92.90
21592;DHT22;10958;50.892;3.992;2022-08-14T09:23:12;37.10;91.50
21592;DHT22;10958;50.892;3.992;2022-08-14T09:25:40;36.10;92.00
21592;DHT22;10958;50.892;3.992;2022-08-14T09:28:07;36.20;92.10
21592;DHT22;10958;50.892;3.992;2022-08-14T09:30:39;35.80;92.60
21592;DHT22;10958;50.892;3.992;2022-08-14T09:33:25;35.10;92.70
21592;DHT22;10958;50.892;3.992;2022-08-14T09:41:52;34.40;91.80
21592;DHT22;10958;50.892;3.992;2022-08-14T09:45:00;33.50;92.00
21592;DHT22;10958;50.892;3.992;2022-08-14T09:47:54;33.50;91.90
21592;DHT22;10958;50.892;3.992;2022-08-14T09:55:21;34.10;91.50
21592;DHT22;10958;50.892;3.992;2022-08-14T09:57:48;33.50;91.10
21592;DHT22;10958;50.892;3.992;2022-08-14T10:03:36;33.20;90.50
21592;DHT22;10958;50.892;3.992;2022-08-14T10:06:13;33.20;91.10
21592;DHT22;10958;50.892;3.992;2022-08-14T10:09:05;33.30;90.50
21592;DHT22;10958;50.892;3.992;2022-08-14T10:11:37;33.00;90.40
21592;DHT22;10958;50.892;3.992;2022-08-14T10:14:16;33.10;90.90
21592;DHT22;10958;50.892;3.992;2022-08-14T10:16:50;33.40;91.30
21592;DHT22;10958;50.892;3.992;2022-08-14T10:19:20;33.80;91.00
21592;DHT22;10958;50.892;3.992;2022-08-14T10:22:00;33.80;91.00
21592;DHT22;10958;50.892;3.992;2022-08-14T10:24:40;34.20;90.60
21592;DHT22;10958;50.892;3.992;2022-08-14T10:27:18;33.90;90.70
21592;DHT22;10958;50.892;3.992;2022-08-14T10:29:51;33.60;91.00
21592;DHT22;10958;50.892;3.992;2022-08-14T10:32:18;33.80;91.00
21592;DHT22;10958;50.892;3.992;2022-08-14T10:34:46;34.00;91.40
21592;DHT22;10958;50.892;3.992;2022-08-14T10:37:13;34.30;91.10
21592;DHT22;10958;50.892;3.992;2022-08-14T10:39:42;34.60;90.00
21592;DHT22;10958;50.892;3.992;2022-08-14T10:42:13;34.40;87.50
21592;DHT22;10958;50.892;3.992;2022-08-14T10:44:44;34.40;87.90
21592;DHT22;10958;50.892;3.992;2022-08-14T10:47:12;34.30;88.80
21592;DHT22;10958;50.892;3.992;2022-08-14T10:49:41;34.30;87.50
21592;DHT22;10958;50.892;3.992;2022-08-14T10:52:25;34.20;86.20
21592;DHT22;10958;50.892;3.992;2022-08-14T10:54:52;34.00;86.20
21592;DHT22;10958;50.892;3.992;2022-08-14T10:57:23;34.10;86.40
21592;DHT22;10958;50.892;3.992;2022-08-14T10:59:59;34.00;86.20
21592;DHT22;10958;50.892;3.992;2022-08-14T11:02:34;33.60;85.70
21592;DHT22;10958;50.892;3.992;2022-08-14T11:05:13;33.70;85.80
21592;DHT22;10958;50.892;3.992;2022-08-14T11:07:42;33.70;84.60
21592;DHT22;10958;50.892;3.992;2022-08-14T11:10:19;33.90;84.40
21592;DHT22;10958;50.892;3.992;2022-08-14T11:12:50;33.80;83.90
21592;DHT22;10958;50.892;3.992;2022-08-14T11:15:23;33.60;84.90
21592;DHT22;10958;50.892;3.992;2022-08-14T11:17:50;33.60;85.60
21592;DHT22;10958;50.892;3.992;2022-08-14T11:20:18;33.90;85.10
21592;DHT22;10958;50.892;3.992;2022-08-14T11:22:45;33.80;85.80
21592;DHT22;10958;50.892;3.992;2022-08-14T11:25:13;33.80;85.90
21592;DHT22;10958;50.892;3.992;2022-08-14T11:27:41;33.70;86.30
21592;DHT22;10958;50.892;3.992;2022-08-14T11:30:13;33.70;86.20
21592;DHT22;10958;50.892;3.992;2022-08-14T11:32:46;33.80;87.70
21592;DHT22;10958;50.892;3.992;2022-08-14T11:35:20;34.00;86.80
21592;DHT22;10958;50.892;3.992;2022-08-14T11:37:58;33.70;87.60
21592;DHT22;10958;50.892;3.992;2022-08-14T11:40:30;33.50;87.90
21592;DHT22;10958;50.892;3.992;2022-08-14T11:43:00;33.30;88.10
21592;DHT22;10958;50.892;3.992;2022-08-14T11:45:37;33.20;87.40
21592;DHT22;10958;50.892;3.992;2022-08-14T11:48:20;33.40;88.00
21592;DHT22;10958;50.892;3.992;2022-08-14T11:50:48;33.40;87.70
21592;DHT22;10958;50.892;3.992;2022-08-14T11:53:26;33.50;87.60
21592;DHT22;10958;50.892;3.992;2022-08-14T11:56:04;33.60;87.80
21592;DHT22;10958;50.892;3.992;2022-08-14T11:58:32;33.80;87.90
21592;DHT22;10958;50.892;3.992;2022-08-14T12:01:03;33.40;87.80
21592;DHT22;10958;50.892;3.992;2022-08-14T12:03:39;33.50;86.90
21592;DHT22;10958;50.892;3.992;2022-08-14T12:06:17;33.70;86.20
21592;DHT22;10958;50.892;3.992;2022-08-14T12:08:43;33.60;84.50
21592;DHT22;10958;50.892;3.992;2022-08-14T12:11:12;33.50;84.10
21592;DHT22;10958;50.892;3.992;2022-08-14T12:13:39;33.00;84.60
21592;DHT22;10958;50.892;3.992;2022-08-14T12:16:08;33.30;84.80
21592;DHT22;10958;50.892;3.992;2022-08-14T12:18:40;33.40;82.70
21592;DHT22;10958;50.892;3.992;2022-08-14T12:23:35;33.10;83.90
21592;DHT22;10958;50.892;3.992;2022-08-14T12:26:07;32.90;84.30
21592;DHT22;10958;50.892;3.992;2022-08-14T12:28:33;33.00;83.60
21592;DHT22;10958;50.892;3.992;2022-08-14T12:31:00;32.90;82.90
21592;DHT22;10958;50.892;3.992;2022-08-14T12:33:36;33.10;82.80
21592;DHT22;10958;50.892;3.992;2022-08-14T12:36:06;33.50;83.10
21592;DHT22;10958;50.892;3.992;2022-08-14T12:38:42;33.60;82.20
21592;DHT22;10958;50.892;3.992;2022-08-14T12:41:13;33.80;84.30
21592;DHT22;10958;50.892;3.992;2022-08-14T12:44:04;33.60;83.30
21592;DHT22;10958;50.892;3.992;2022-08-14T12:46:32;33.80;83.00
21592;DHT22;10958;50.892;3.992;2022-08-14T12:49:02;33.80;81.80
21592;DHT22;10958;50.892;3.992;2022-08-14T12:51:33;33.80;82.10
21592;DHT22;10958;50.892;3.992;2022-08-14T12:53:59;34.00;81.70
21592;DHT22;10958;50.892;3.992;2022-08-14T12:56:26;34.00;82.80
21592;DHT22;10958;50.892;3.992;2022-08-14T12:58:56;33.90;83.40
21592;DHT22;10958;50.892;3.992;2022-08-14T13:01:26;33.80;83.70
21592;DHT22;10958;50.892;3.992;2022-08-14T13:04:09;33.80;82.40
21592;DHT22;10958;50.892;3.992;2022-08-14T13:06:38;33.90;82.90
21592;DHT22;10958;50.892;3.992;2022-08-14T13:09:06;34.30;83.00
21592;DHT22;10958;50.892;3.992;2022-08-14T13:11:40;34.50;82.00
21592;DHT22;10958;50.892;3.992;2022-08-14T13:14:11;34.50;81.30
21592;DHT22;10958;50.892;3.992;2022-08-14T13:16:39;34.70;83.00
21592;DHT22;10958;50.892;3.992;2022-08-14T13:19:11;34.80;82.50
21592;DHT22;10958;50.892;3.992;2022-08-14T13:21:38;34.40;83.80
21592;DHT22;10958;50.892;3.992;2022-08-14T13:24:05;34.30;82.70
21592;DHT22;10958;50.892;3.992;2022-08-14T13:26:33;34.30;82.50
21592;DHT22;10958;50.892;3.992;2022-08-14T13:29:01;34.10;83.20
21592;DHT22;10958;50.892;3.992;2022-08-14T13:31:29;34.10;83.60
21592;DHT22;10958;50.892;3.992;2022-08-14T13:33:57;34.00;83.40
21592;DHT22;10958;50.892;3.992;2022-08-14T13:36:25;34.10;83.80
21592;DHT22;10958;50.892;3.992;2022-08-14T13:38:52;34.00;84.00
21592;DHT22;10958;50.892;3.992;2022-08-14T13:41:18;34.00;83.80
21592;DHT22;10958;50.892;3.992;2022-08-14T13:43:49;33.90;83.80
21592;DHT22;10958;50.892;3.992;2022-08-14T13:46:16;34.10;83.50
21592;DHT22;10958;50.892;3.992;2022-08-14T13:48:45;34.00;83.60
21592;DHT22;10958;50.892;3.992;2022-08-14T13:51:13;34.20;83.40
21592;DHT22;10958;50.892;3.992;2022-08-14T13:53:48;34.30;82.30
21592;DHT22;10958;50.892;3.992;2022-08-14T13:56:14;34.50;82.20
21592;DHT22;10958;50.892;3.992;2022-08-14T13:58:44;34.50;81.60
21592;DHT22;10958;50.892;3.992;2022-08-14T14:01:14;34.60;81.20
21592;DHT22;10958;50.892;3.992;2022-08-14T14:03:42;34.60;80.90
21592;DHT22;10958;50.892;3.992;2022-08-14T14:06:12;34.50;80.50
21592;DHT22;10958;50.892;3.992;2022-08-14T14:08:47;34.60;81.20
21592;DHT22;10958;50.892;3.992;2022-08-14T14:11:15;34.40;82.20
21592;DHT22;10958;50.892;3.992;2022-08-14T14:13:44;34.20;81.10
21592;DHT22;10958;50.892;3.992;2022-08-14T14:16:12;34.20;81.20
21592;DHT22;10958;50.892;3.992;2022-08-14T14:18:38;34.20;81.00
21592;DHT22;10958;50.892;3.992;2022-08-14T14:21:04;34.20;81.70
21592;DHT22;10958;50.892;3.992;2022-08-14T14:23:33;33.80;82.50
21592;DHT22;10958;50.892;3.992;2022-08-14T14:25:58;33.90;83.10
21592;DHT22;10958;50.892;3.992;2022-08-14T14:28:29;33.90;81.90
21592;DHT22;10958;50.892;3.992;2022-08-14T14:30:56;33.90;82.20
21592;DHT22;10958;50.892;3.992;2022-08-14T14:33:23;34.00;81.20
21592;DHT22;10958;50.892;3.992;2022-08-14T14:35:49;33.90;80.70
21592;DHT22;10958;50.892;3.992;2022-08-14T14:38:16;34.20;80.80
21592;DHT22;10958;50.892;3.992;2022-08-14T14:40:45;34.50;80.70
21592;DHT22;10958;50.892;3.992;2022-08-14T14:43:13;34.30;80.80
21592;DHT22;10958;50.892;3.992;2022-08-14T14:45:42;34.40;81.00
21592;DHT22;10958;50.892;3.992;2022-08-14T14:48:10;34.70;81.30
21592;DHT22;10958;50.892;3.992;2022-08-14T14:50:35;34.60;80.70
21592;DHT22;10958;50.892;3.992;2022-08-14T14:53:05;34.90;79.90
21592;DHT22;10958;50.892;3.992;2022-08-14T14:55:32;34.90;80.00
21592;DHT22;10958;50.892;3.992;2022-08-14T14:57:58;35.10;79.30
21592;DHT22;10958;50.892;3.992;2022-08-14T15:00:24;35.10;80.20
21592;DHT22;10958;50.892;3.992;2022-08-14T15:02:52;35.00;82.60
21592;DHT22;10958;50.892;3.992;2022-08-14T15:05:19;34.90;81.70
21592;DHT22;10958;50.892;3.992;2022-08-14T15:07:47;34.50;83.10
21592;DHT22;10958;50.892;3.992;2022-08-14T15:10:16;34.40;83.20
21592;DHT22;10958;50.892;3.992;2022-08-14T15:12:42;34.80;83.10
21592;DHT22;10958;50.892;3.992;2022-08-14T15:15:09;34.70;82.40
21592;DHT22;10958;50.892;3.992;2022-08-14T15:17:36;34.70;83.00
21592;DHT22;10958;50.892;3.992;2022-08-14T15:20:06;34.50;83.40
21592;DHT22;10958;50.892;3.992;2022-08-14T15:22:38;34.50;83.00
21592;DHT22;10958;50.892;3.992;2022-08-14T15:25:05;34.50;84.00
21592;DHT22;10958;50.892;3.992;2022-08-14T15:27:32;34.70;83.80
21592;DHT22;10958;50.892;3.992;2022-08-14T15:29:59;34.90;83.70
21592;DHT22;10958;50.892;3.992;2022-08-14T15:32:24;34.80;84.20
21592;DHT22;10958;50.892;3.992;2022-08-14T15:34:50;34.50;84.20
21592;DHT22;10958;50.892;3.992;2022-08-14T15:37:16;34.80;84.20
21592;DHT22;10958;50.892;3.992;2022-08-14T15:39:42;34.90;83.80
21592;DHT22;10958;50.892;3.992;2022-08-14T15:42:08;34.90;84.40
21592;DHT22;10958;50.892;3.992;2022-08-14T15:44:35;34.70;83.70
21592;DHT22;10958;50.892;3.992;2022-08-14T15:47:03;34.60;84.10
21592;DHT22;10958;50.892;3.992;2022-08-14T15:49:31;34.70;84.60
21592;DHT22;10958;50.892;3.992;2022-08-14T15:51:57;34.60;85.00
21592;DHT22;10958;50.892;3.992;2022-08-14T15:54:26;34.40;84.80
21592;DHT22;10958;50.892;3.992;2022-08-14T15:57:01;34.10;85.20
21592;DHT22;10958;50.892;3.992;2022-08-14T15:59:28;34.00;86.10
21592;DHT22;10958;50.892;3.992;2022-08-14T16:02:14;33.80;86.80
21592;DHT22;10958;50.892;3.992;2022-08-14T16:04:40;33.70;86.10
21592;DHT22;10958;50.892;3.992;2022-08-14T16:07:06;33.40;86.70
21592;DHT22;10958;50.892;3.992;2022-08-14T16:09:31;33.20;86.30
21592;DHT22;10958;50.892;3.992;2022-08-14T16:11:57;33.30;86.90